Time;durP1;ratioP1;P1;durP2;ratioP2;P2;SDS_P1;SDS_P2;PMS_P1;PMS_P2;Temp;Humidity;BMP_temperature;BMP_pressure;BME280_temperature;BME280_humidity;BME280_pressure;Samples;Min_cycle;Max_cycle;Signal;HPM_P1;HPM_P2
2023/12/04 00:02:33;;;;;;;;;;;;;;;;;;6287343;28;20427;-85
2023/12/04 00:05:33;;;;;;;;;;;;;;;;;;6275207;28;20353;-85
2023/12/04 00:08:33;;;;;;;;;;;;;;;;;;6283057;28;19912;-85
2023/12/04 00:11:33;;;;;;;;;;;;;;;;;;6268298;28;20035;-85
2023/12/04 00:14:34;;;;;;;;;;;;;;;;;;6273503;28;19951;-85
2023/12/04 00:17:34;;;;;;;;;;;;;;;;;;6275480;28;20019;-85
2023/12/04 00:20:34;;;;;;;;;;;;;;;;;;6283068;28;20103;-85
2023/12/04 00:23:34;;;;;;;;;;;;;;;;;;6283375;28;19942;-85
2023/12/04 00:26:34;;;;;;;;;;;;;;;;;;6281118;28;20274;-85
2023/12/04 00:29:34;;;;;;;;;;;;;;;;;;6270335;28;20277;-84
2023/12/04 00:32:35;;;;;;;;;;;;;;;;;;6267678;28;20370;-84
2023/12/04 00:35:35;;;;;;;;;;;;;;;;;;6278839;28;19920;-85
2023/12/04 00:38:35;;;;;;;;;;;;;;;;;;6285480;28;19944;-84
2023/12/04 00:41:35;;;;;;;;;;;;;;;;;;6286071;28;19912;-84
2023/12/04 00:44:35;;;;;;;;;;;;;;;;;;6285410;28;19912;-83
2023/12/04 00:47:35;;;;;;;;;;;;;;;;;;6270859;28;19912;-84
2023/12/04 00:50:35;;;;;;;;;;;;;;;;;;6280672;28;19940;-84
2023/12/04 00:53:36;;;;;;;;;;;;;;;;;;6273932;28;19913;-84
2023/12/04 00:56:36;;;;;;;;;;;;;;;;;;6277616;28;19917;-83
2023/12/04 00:59:36;;;;;;;;;;;;;;;;;;6276556;28;19917;-84
2023/12/04 01:02:36;;;;;;;;;;;;;;;;;;6276354;28;19994;-82
2023/12/04 01:05:36;;;;;;;;;;;;;;;;;;6275175;28;19912;-82
2023/12/04 01:08:36;;;;;;;;;;;;;;;;;;6282912;28;19913;-83
2023/12/04 01:11:36;;;;;;;;;;;;;;;;;;6273881;28;20055;-83
2023/12/04 01:14:39;;;;;;;;;;;;;;;;;;6278666;28;19920;-82
2023/12/04 01:17:40;;;;;;;;;;;;;;;;;;6281687;28;19974;-82
2023/12/04 01:20:40;;;;;;;;;;;;;;;;;;6280205;28;20266;-82
2023/12/04 01:23:40;;;;;;;;;;;;;;;;;;6279554;28;19917;-82
2023/12/04 01:26:40;;;;;;;;;;;;;;;;;;6273894;28;19939;-82
2023/12/04 01:29:40;;;;;;;;;;;;;;;;;;6274042;28;20354;-82
2023/12/04 01:32:41;;;;;;;;;;;;;;;;;;6274225;28;19925;-85
2023/12/04 01:35:41;;;;;;;;;;;;;;;;;;6281976;28;19924;-82
2023/12/04 01:38:41;;;;;;;;;;;;;;;;;;6284263;28;19924;-82
2023/12/04 01:41:41;;;;;;;;;;;;;;;;;;6271726;28;19916;-81
2023/12/04 01:44:41;;;;;;;;;;;;;;;;;;6261607;28;20476;-83
2023/12/04 01:47:41;;;;;;;;;;;;;;;;;;6296899;28;20344;-82
2023/12/04 01:50:41;;;;;;;;;;;;;;;;;;6272100;28;20043;-83
2023/12/04 01:53:42;;;;;;;;;;;;;;;;;;6287324;28;19913;-82
2023/12/04 01:56:42;;;;;;;;;;;;;;;;;;6285510;28;19928;-83
2023/12/04 01:59:42;;;;;;;;;;;;;;;;;;6279567;28;19923;-84
2023/12/04 02:02:42;;;;;;;;;;;;;;;;;;6287977;28;20301;-83
2023/12/04 02:05:42;;;;;;;;;;;;;;;;;;6279246;28;19923;-84
2023/12/04 02:08:43;;;;;;;;;;;;;;;;;;6279877;28;19913;-85
2023/12/04 02:11:43;;;;;;;;;;;;;;;;;;6281588;28;19941;-83
2023/12/04 02:14:43;;;;;;;;;;;;;;;;;;6271887;28;19916;-83
2023/12/04 02:17:44;;;;;;;;;;;;;;;;;;6268239;28;19947;-83
2023/12/04 02:20:44;;;;;;;;;;;;;;;;;;6287376;28;19928;-84
2023/12/04 02:23:44;;;;;;;;;;;;;;;;;;6259352;28;20381;-84
2023/12/04 02:26:45;;;;;;;;;;;;;;;;;;6278030;28;19954;-84
2023/12/04 02:29:45;;;;;;;;;;;;;;;;;;6284796;28;20480;-83
2023/12/04 02:32:45;;;;;;;;;;;;;;;;;;6270053;28;20023;-84
2023/12/04 02:35:45;;;;;;;;;;;;;;;;;;6274024;28;20004;-85
2023/12/04 02:38:45;;;;;;;;;;;;;;;;;;6281065;28;20396;-84
2023/12/04 02:41:46;;;;;;;;;;;;;;;;;;6285059;28;19954;-84
2023/12/04 02:44:46;;;;;;;;;;;;;;;;;;6285560;28;19960;-84
2023/12/04 02:47:46;;;;;;;;;;;;;;;;;;6267430;28;20003;-84
2023/12/04 02:50:46;;;;;;;;;;;;;;;;;;6293927;28;19920;-84
2023/12/04 02:53:46;;;;;;;;;;;;;;;;;;6282345;28;20044;-84
2023/12/04 02:56:46;;;;;;;;;;;;;;;;;;6261647;28;20023;-84
2023/12/04 02:59:46;;;;;;;;;;;;;;;;;;6278492;28;19924;-84
2023/12/04 03:02:46;;;;;;;;;;;;;;;;;;6265306;28;20401;-84
2023/12/04 03:05:47;;;;;;;;;;;;;;;;;;6284728;28;20285;-85
2023/12/04 03:08:47;;;;;;;;;;;;;;;;;;6277879;28;20293;-86
2023/12/04 03:11:47;;;;;;;;;;;;;;;;;;6277254;28;20262;-88
2023/12/04 03:14:47;;;;;;;;;;;;;;;;;;6276629;28;19986;-88
2023/12/04 03:17:47;;;;;;;;;;;;;;;;;;6270344;28;19916;-88
2023/12/04 03:20:47;;;;;;;;;;;;;;;;;;6292656;28;19924;-88
2023/12/04 03:23:48;;;;;;;;;;;;;;;;;;6275005;28;20400;-81
2023/12/04 03:26:48;;;;;;;;;;;;;;;;;;6275334;28;19948;-80
2023/12/04 03:29:48;;;;;;;;;;;;;;;;;;6268860;28;19928;-79
2023/12/04 03:32:48;;;;;;;;;;;;;;;;;;6270250;28;19960;-79
2023/12/04 03:35:48;;;;;;;;;;;;;;;;;;6278196;28;20015;-80
2023/12/04 03:38:48;;;;;;;;;;;;;;;;;;6286096;28;19920;-79
2023/12/04 03:41:48;;;;;;;;;;;;;;;;;;5931593;28;9999626;-80
2023/12/04 03:44:48;;;;;;;;;;;;;;;;;;6289116;28;19967;-79
2023/12/04 03:47:49;;;;;;;;;;;;;;;;;;6287666;28;19940;-79
2023/12/04 03:50:49;;;;;;;;;;;;;;;;;;6266913;28;19928;-79
2023/12/04 03:53:49;;;;;;;;;;;;;;;;;;6276693;28;19917;-79
2023/12/04 03:56:49;;;;;;;;;;;;;;;;;;6279599;28;19927;-79
2023/12/04 03:59:49;;;;;;;;;;;;;;;;;;6282821;28;20023;-80
2023/12/04 04:02:49;;;;;;;;;;;;;;;;;;6279269;28;19912;-79
2023/12/04 04:05:49;;;;;;;;;;;;;;;;;;6273811;28;19970;-80
2023/12/04 04:08:49;;;;;;;;;;;;;;;;;;6286604;28;20431;-81
2023/12/04 04:11:50;;;;;;;;;;;;;;;;;;5952435;28;10000190;-80
2023/12/04 04:14:50;;;;;;;;;;;;;;;;;;6280113;28;19912;-79
2023/12/04 04:17:50;;;;;;;;;;;;;;;;;;6273050;28;19916;-79
2023/12/04 04:20:50;;;;;;;;;;;;;;;;;;6278314;28;19916;-79
2023/12/04 04:23:50;;;;;;;;;;;;;;;;;;6278768;28;20373;-79
2023/12/04 04:26:50;;;;;;;;;;;;;;;;;;6281597;28;19913;-80
2023/12/04 04:29:50;;;;;;;;;;;;;;;;;;6276413;28;19960;-79
2023/12/04 04:32:51;;;;;;;;;;;;;;;;;;6273664;28;19916;-84
2023/12/04 04:35:51;;;;;;;;;;;;;;;;;;6282761;28;19916;-83
2023/12/04 04:38:51;;;;;;;;;;;;;;;;;;6284227;28;20142;-83
2023/12/04 04:41:51;;;;;;;;;;;;;;;;;;6293252;28;20054;-83
2023/12/04 04:44:51;;;;;;;;;;;;;;;;;;6277854;28;20015;-82
2023/12/04 04:47:51;;;;;;;;;;;;;;;;;;6275575;28;19953;-82
2023/12/04 04:50:51;;;;;;;;;;;;;;;;;;6262173;28;20091;-81
2023/12/04 04:53:52;;;;;;;;;;;;;;;;;;6289197;28;19913;-81
2023/12/04 04:56:52;;;;;;;;;;;;;;;;;;6281289;28;19942;-80
2023/12/04 04:59:52;;;;;;;;;;;;;;;;;;6273870;28;19929;-80
2023/12/04 05:02:52;;;;;;;;;;;;;;;;;;6275404;28;20328;-80
2023/12/04 05:05:52;;;;;;;;;;;;;;;;;;6279546;28;20296;-79
2023/12/04 05:08:52;;;;;;;;;;;;;;;;;;6275653;28;19912;-79
2023/12/04 05:11:53;;;;;;;;;;;;;;;;;;6277025;28;19917;-79
2023/12/04 05:14:53;;;;;;;;;;;;;;;;;;6274515;28;19944;-79
2023/12/04 05:17:53;;;;;;;;;;;;;;;;;;6277398;28;19920;-78
2023/12/04 05:20:53;;;;;;;;;;;;;;;;;;6274308;28;19928;-78
2023/12/04 05:23:53;;;;;;;;;;;;;;;;;;6273414;28;19921;-78
2023/12/04 05:26:53;;;;;;;;;;;;;;;;;;6287812;28;19912;-77
2023/12/04 05:29:54;;;;;;;;;;;;;;;;;;6282133;28;19994;-77
2023/12/04 05:32:54;;;;;;;;;;;;;;;;;;6268607;28;19913;-77
2023/12/04 05:35:54;;;;;;;;;;;;;;;;;;6281454;28;19917;-77
2023/12/04 05:38:55;;;;;;;;;;;;;;;;;;6294956;28;19921;-77
2023/12/04 05:41:55;;;;;;;;;;;;;;;;;;6272790;28;20327;-77
2023/12/04 05:44:57;;;;;;;;;;;;;;;;;;5941517;28;10000276;-77
2023/12/04 05:47:57;;;;;;;;;;;;;;;;;;6273646;28;20070;-76
2023/12/04 05:50:57;;;;;;;;;;;;;;;;;;6274740;28;19919;-76
2023/12/04 05:53:57;;;;;;;;;;;;;;;;;;6273671;28;20003;-76
2023/12/04 05:56:58;;;;;;;;;;;;;;;;;;6278109;28;20023;-76
2023/12/04 05:59:58;;;;;;;;;;;;;;;;;;6284235;28;19916;-76
2023/12/04 06:02:59;;;;;;;;;;;;;;;;;;6284571;28;20448;-75
2023/12/04 06:05:59;;;;;;;;;;;;;;;;;;6284137;28;20342;-75
2023/12/04 06:08:59;;;;;;;;;;;;;;;;;;6275002;28;19921;-75
2023/12/04 06:12:04;;;;;;;;;;;;;;;;;;6277214;28;20432;-75
2023/12/04 06:15:04;;;;;;;;;;;;;;;;;;6277740;28;19927;-75
2023/12/04 06:18:04;;;;;;;;;;;;;;;;;;6268998;28;20308;-74
2023/12/04 06:21:04;;;;;;;;;;;;;;;;;;6278273;28;20066;-74
2023/12/04 06:24:05;;;;;;;;;;;;;;;;;;6279687;28;20015;-74
2023/12/04 06:27:06;;;;;;;;;;;;;;;;;;6271418;28;19962;-74
2023/12/04 06:30:06;;;;;;;;;;;;;;;;;;6277057;28;20309;-74
2023/12/04 06:33:06;;;;;;;;;;;;;;;;;;6268598;28;19943;-74
2023/12/04 06:36:07;;;;;;;;;;;;;;;;;;6282549;28;19990;-74
2023/12/04 06:39:07;;;;;;;;;;;;;;;;;;6277852;28;20323;-74
2023/12/04 06:42:10;;;;;;;;;;;;;;;;;;6274410;28;20470;-73
2023/12/04 06:45:10;;;;;;;;;;;;;;;;;;6280621;28;20649;-74
2023/12/04 06:48:10;;;;;;;;;;;;;;;;;;6275485;28;20027;-74
2023/12/04 06:51:10;;;;;;;;;;;;;;;;;;6277022;28;19913;-74
2023/12/04 06:54:13;;;;;;;;;;;;;;;;;;6288069;28;19912;-74
2023/12/04 06:57:16;;;;;;;;;;;;;;;;;;6271612;28;19924;-74
2023/12/04 07:00:16;;;;;;;;;;;;;;;;;;6273159;28;20281;-74
2023/12/04 07:03:16;;;;;;;;;;;;;;;;;;6280957;28;19921;-74
2023/12/04 07:06:16;;;;;;;;;;;;;;;;;;6282676;28;19928;-74
2023/12/04 07:09:17;;;;;;;;;;;;;;;;;;6284921;28;19991;-74
2023/12/04 07:12:17;;;;;;;;;;;;;;;;;;6273906;28;19913;-74
2023/12/04 07:15:17;;;;;;;;;;;;;;;;;;6267490;28;19912;-74
2023/12/04 07:18:17;;;;;;;;;;;;;;;;;;6271219;28;19956;-74
2023/12/04 07:21:17;;;;;;;;;;;;;;;;;;6280984;28;19952;-74
2023/12/04 07:24:17;;;;;;;;;;;;;;;;;;6275511;28;20040;-74
2023/12/04 07:27:18;;;;;;;;;;;;;;;;;;6274106;28;19913;-74
2023/12/04 07:30:18;;;;;;;;;;;;;;;;;;6271700;28;19936;-74
2023/12/04 07:33:18;;;;;;;;;;;;;;;;;;6270676;28;20289;-74
2023/12/04 07:36:18;;;;;;;;;;;;;;;;;;6277861;28;19943;-74
2023/12/04 07:39:18;;;;;;;;;;;;;;;;;;6277871;28;20388;-74
2023/12/04 07:42:19;;;;;;;;;;;;;;;;;;6275197;28;20374;-74
2023/12/04 07:45:20;;;;;;;;;;;;;;;;;;6279840;28;19920;-74
2023/12/04 07:48:20;;;;;;;;;;;;;;;;;;6269192;28;19979;-73
2023/12/04 07:51:20;;;;;;;;;;;;;;;;;;6278700;28;20273;-74
2023/12/04 07:54:22;;;;;;;;;;;;;;;;;;6271492;28;20362;-75
2023/12/04 07:57:22;;;;;;;;;;;;;;;;;;6269139;28;20019;-74
2023/12/04 08:00:22;;;;;;;;;;;;;;;;;;6275120;28;19982;-76
2023/12/04 08:03:23;;;;;;;;;;;;;;;;;;6279030;28;19923;-75
2023/12/04 08:06:24;;;;;;;;;;;;;;;;;;6281894;28;19940;-73
2023/12/04 08:09:24;;;;;;;;;;;;;;;;;;6274171;28;20030;-73
2023/12/04 08:12:24;;;;;;;;;;;;;;;;;;6278239;28;19912;-73
2023/12/04 08:15:24;;;;;;;;;;;;;;;;;;6271568;28;19986;-74
2023/12/04 08:18:24;;;;;;;;;;;;;;;;;;6271828;28;19971;-74
2023/12/04 08:21:25;;;;;;;;;;;;;;;;;;6269776;28;19952;-74
2023/12/04 08:24:25;;;;;;;;;;;;;;;;;;6278936;28;20273;-74
2023/12/04 08:27:25;;;;;;;;;;;;;;;;;;6278395;28;20264;-74
2023/12/04 08:30:27;;;;;;;;;;;;;;;;;;6275706;28;19924;-74
2023/12/04 08:33:27;;;;;;;;;;;;;;;;;;6279970;28;19917;-75
2023/12/04 08:36:27;;;;;;;;;;;;;;;;;;6275500;28;19924;-74
2023/12/04 08:39:27;;;;;;;;;;;;;;;;;;6283470;28;19928;-75
2023/12/04 08:42:27;;;;;;;;;;;;;;;;;;6281649;28;19912;-75
2023/12/04 08:45:27;;;;;;;;;;;;;;;;;;6284101;28;19913;-75
2023/12/04 08:48:27;;;;;;;;;;;;;;;;;;6270194;28;20140;-75
2023/12/04 08:51:27;;;;;;;;;;;;;;;;;;6279194;28;20304;-75
2023/12/04 08:54:28;;;;;;;;;;;;;;;;;;6278953;28;20277;-75
2023/12/04 08:57:28;;;;;;;;;;;;;;;;;;6282544;28;19987;-75
2023/12/04 09:00:28;;;;;;;;;;;;;;;;;;6287300;28;19921;-75
2023/12/04 09:03:28;;;;;;;;;;;;;;;;;;6283352;28;19935;-75
2023/12/04 09:06:28;;;;;;;;;;;;;;;;;;6279559;28;19912;-75
2023/12/04 09:09:28;;;;;;;;;;;;;;;;;;6279893;28;19919;-75
2023/12/04 09:12:28;;;;;;;;;;;;;;;;;;6281870;28;19917;-76
2023/12/04 09:15:29;;;;;;;;;;;;;;;;;;6281706;28;19920;-77
2023/12/04 09:18:29;;;;;;;;;;;;;;;;;;6278832;28;19931;-77
2023/12/04 09:21:29;;;;;;;;;;;;;;;;;;6284227;28;20155;-77
2023/12/04 09:24:31;;;;;;;;;;;;;;;;;;6277964;28;19938;-77
2023/12/04 09:27:31;;;;;;;;;;;;;;;;;;6277638;28;20382;-77
2023/12/04 09:30:31;;;;;;;;;;;;;;;;;;6284084;28;19928;-77
2023/12/04 09:33:31;;;;;;;;;;;;;;;;;;6280182;28;19921;-77
2023/12/04 09:36:31;;;;;;;;;;;;;;;;;;6277438;28;19917;-77
2023/12/04 09:39:31;;;;;;;;;;;;;;;;;;6287947;28;19924;-77
2023/12/04 09:42:32;;;;;;;;;;;;;;;;;;6277622;28;19921;-77
2023/12/04 09:45:32;;;;;;;;;;;;;;;;;;6291344;28;19913;-77
2023/12/04 09:48:32;;;;;;;;;;;;;;;;;;6273831;28;20015;-77
2023/12/04 09:51:32;;;;;;;;;;;;;;;;;;6272271;28;19960;-76
2023/12/04 09:54:32;;;;;;;;;;;;;;;;;;6279343;28;19959;-76
2023/12/04 09:57:32;;;;;;;;;;;;;;;;;;6275273;28;19967;-76
2023/12/04 10:00:32;;;;;;;;;;;;;;;;;;6290350;28;20067;-76
2023/12/04 10:03:33;;;;;;;;;;;;;;;;;;6284547;28;19966;-77
2023/12/04 10:06:33;;;;;;;;;;;;;;;;;;6281172;28;20360;-77
2023/12/04 10:09:33;;;;;;;;;;;;;;;;;;6281074;28;19927;-75
2023/12/04 10:12:33;;;;;;;;;;;;;;;;;;6276540;28;19913;-76
2023/12/04 10:15:34;;;;;;;;;;;;;;;;;;6277408;28;19924;-76
2023/12/04 10:18:34;;;;;;;;;;;;;;;;;;6275857;28;19955;-76
2023/12/04 10:21:34;;;;;;;;;;;;;;;;;;6274844;28;19912;-76
2023/12/04 10:24:35;;;;;;;;;;;;;;;;;;6276773;28;19920;-76
2023/12/04 10:27:35;;;;;;;;;;;;;;;;;;6275603;28;19916;-76
2023/12/04 10:30:35;;;;;;;;;;;;;;;;;;6275910;28;20035;-76
2023/12/04 10:33:35;;;;;;;;;;;;;;;;;;6276507;28;20222;-76
2023/12/04 10:36:35;;;;;;;;;;;;;;;;;;6280328;28;19917;-76
2023/12/04 10:39:36;;;;;;;;;;;;;;;;;;6281015;28;20471;-76
2023/12/04 10:42:36;;;;;;;;;;;;;;;;;;6270612;28;19921;-76
2023/12/04 10:45:36;;;;;;;;;;;;;;;;;;6265536;28;19912;-75
2023/12/04 10:48:36;;;;;;;;;;;;;;;;;;6274644;28;20349;-75
2023/12/04 10:51:36;;;;;;;;;;;;;;;;;;6273156;28;19936;-75
2023/12/04 10:54:36;;;;;;;;;;;;;;;;;;6270385;28;19917;-75
2023/12/04 10:57:37;;;;;;;;;;;;;;;;;;6273554;28;19916;-75
2023/12/04 11:00:37;;;;;;;;;;;;;;;;;;6284483;28;20369;-75
2023/12/04 11:03:37;;;;;;;;;;;;;;;;;;6275708;28;19920;-75
2023/12/04 11:06:37;;;;;;;;;;;;;;;;;;6267293;28;19995;-75
2023/12/04 11:09:37;;;;;;;;;;;;;;;;;;6266599;28;20309;-75
2023/12/04 11:12:37;;;;;;;;;;;;;;;;;;6289773;28;19913;-76
2023/12/04 11:15:39;;;;;;;;;;;;;;;;;;6278749;28;20292;-76
2023/12/04 11:18:40;;;;;;;;;;;;;;;;;;6275561;28;19921;-76
2023/12/04 11:21:40;;;;;;;;;;;;;;;;;;6273123;28;20344;-76
2023/12/04 11:24:40;;;;;;;;;;;;;;;;;;6265938;28;20328;-76
2023/12/04 11:27:40;;;;;;;;;;;;;;;;;;6271359;28;20334;-75
2023/12/04 11:30:40;;;;;;;;;;;;;;;;;;6276488;28;20313;-76
2023/12/04 11:33:41;;;;;;;;;;;;;;;;;;6284848;28;19919;-75
2023/12/04 11:36:41;;;;;;;;;;;;;;;;;;6278248;28;19916;-75
2023/12/04 11:39:41;;;;;;;;;;;;;;;;;;6271728;28;19920;-75
2023/12/04 11:42:41;;;;;;;;;;;;;;;;;;6278063;28;19959;-76
2023/12/04 11:45:41;;;;;;;;;;;;;;;;;;6278065;28;19912;-76
2023/12/04 11:48:41;;;;;;;;;;;;;;;;;;6274028;28;19913;-75
2023/12/04 11:51:47;;;;;;;;;;;;;;;;;;6273120;28;19914;-75
2023/12/04 11:54:47;;;;;;;;;;;;;;;;;;6292230;28;19940;-75
2023/12/04 11:57:47;;;;;;;;;;;;;;;;;;6275385;28;20365;-75
2023/12/04 12:00:48;;;;;;;;;;;;;;;;;;6278093;28;20352;-75
2023/12/04 12:03:48;;;;;;;;;;;;;;;;;;6289598;28;19974;-75
2023/12/04 12:06:48;;;;;;;;;;;;;;;;;;6283349;28;20003;-75
2023/12/04 12:09:48;;;;;;;;;;;;;;;;;;6281724;28;19966;-75
2023/12/04 12:12:49;;;;;;;;;;;;;;;;;;6276607;28;19913;-75
2023/12/04 12:15:50;;;;;;;;;;;;;;;;;;6277370;28;19923;-75
2023/12/04 12:18:50;;;;;;;;;;;;;;;;;;6279483;28;20050;-75
2023/12/04 12:21:51;;;;;;;;;;;;;;;;;;6284807;28;20373;-75
2023/12/04 12:24:51;;;;;;;;;;;;;;;;;;6274924;28;19912;-75
2023/12/04 12:27:52;;;;;;;;;;;;;;;;;;6278003;28;19917;-75
2023/12/04 12:30:53;;;;;;;;;;;;;;;;;;6282217;28;19920;-75
2023/12/04 12:33:53;;;;;;;;;;;;;;;;;;6278178;28;19916;-75
2023/12/04 12:36:53;;;;;;;;;;;;;;;;;;6277233;28;20289;-75
2023/12/04 12:39:53;;;;;;;;;;;;;;;;;;6283590;28;20265;-75
2023/12/04 12:42:53;;;;;;;;;;;;;;;;;;6273317;28;20333;-77
2023/12/04 12:45:53;;;;;;;;;;;;;;;;;;6269098;28;19943;-77
2023/12/04 12:48:53;;;;;;;;;;;;;;;;;;6283058;28;19919;-77
2023/12/04 12:51:54;;;;;;;;;;;;;;;;;;6282809;28;19913;-77
2023/12/04 12:54:54;;;;;;;;;;;;;;;;;;6283763;28;19918;-77
2023/12/04 12:57:54;;;;;;;;;;;;;;;;;;6295124;28;19920;-77
2023/12/04 13:00:54;;;;;;;;;;;;;;;;;;6286048;28;19927;-77
2023/12/04 13:03:54;;;;;;;;;;;;;;;;;;6268173;28;20015;-78
2023/12/04 13:06:54;;;;;;;;;;;;;;;;;;6283362;28;20289;-76
2023/12/04 13:09:55;;;;;;;;;;;;;;;;;;6290995;28;19917;-77
2023/12/04 13:12:56;;;;;;;;;;;;;;;;;;6279294;28;20285;-78
2023/12/04 13:15:56;;;;;;;;;;;;;;;;;;6272810;28;19997;-76
2023/12/04 13:18:57;;;;;;;;;;;;;;;;;;6285191;28;19917;-76
2023/12/04 13:21:57;;;;;;;;;;;;;;;;;;6274470;28;19913;-77
2023/12/04 13:24:57;;;;;;;;;;;;;;;;;;6264496;28;20344;-76
2023/12/04 13:27:57;;;;;;;;;;;;;;;;;;6274078;28;19919;-76
2023/12/04 13:30:57;;;;;;;;;;;;;;;;;;6273383;28;20529;-77
2023/12/04 13:33:57;;;;;;;;;;;;;;;;;;6281837;28;19944;-76
2023/12/04 13:36:58;;;;;;;;;;;;;;;;;;6279183;28;19916;-76
2023/12/04 13:39:58;;;;;;;;;;;;;;;;;;6261866;28;19917;-76
2023/12/04 13:46:17;;;;;;;;;;;;;;;;;;6272884;28;19917;-76
2023/12/04 13:49:19;;;;;;;;;;;;;;;;;;6280480;28;19919;-78
2023/12/04 13:52:22;;;;;;;;;;;;;;;;;;6281883;28;19966;-78
2023/12/04 13:55:36;;;;;;;;;;;;;;;;;;6273399;28;19913;-77
2023/12/04 13:58:38;;;;;;;;;;;;;;;;;;6279625;28;19921;-77
2023/12/04 14:01:41;;;;;;;;;;;;;;;;;;6284386;28;20381;-77
2023/12/04 14:04:42;;;;;;;;;;;;;;;;;;6275039;28;20015;-77
2023/12/04 14:07:45;;;;;;;;;;;;;;;;;;6257921;28;20418;-76
2023/12/04 14:10:45;;;;;;;;;;;;;;;;;;6277218;28;20011;-77
2023/12/04 14:13:45;;;;;;;;;;;;;;;;;;6271335;28;19912;-77
2023/12/04 14:16:46;;;;;;;;;;;;;;;;;;6280286;28;19917;-77
2023/12/04 14:19:47;;;;;;;;;;;;;;;;;;6280706;28;19921;-77
2023/12/04 14:22:47;;;;;;;;;;;;;;;;;;6270516;28;19970;-77
2023/12/04 14:25:47;;;;;;;;;;;;;;;;;;6278177;28;19927;-76
2023/12/04 14:28:47;;;;;;;;;;;;;;;;;;6271071;28;19921;-77
2023/12/04 14:31:47;;;;;;;;;;;;;;;;;;6271439;28;19925;-77
2023/12/04 14:34:47;;;;;;;;;;;;;;;;;;6285841;28;20000;-76
2023/12/04 14:37:47;;;;;;;;;;;;;;;;;;6279935;28;19931;-77
2023/12/04 14:40:47;;;;;;;;;;;;;;;;;;6281376;28;19921;-76
2023/12/04 14:43:48;;;;;;;;;;;;;;;;;;6272662;28;19916;-78
2023/12/04 14:46:48;;;;;;;;;;;;;;;;;;6275557;28;20042;-78
2023/12/04 14:49:53;;;;;;;;;;;;;;;;;;6286082;28;19912;-78
2023/12/04 14:52:55;;;;;;;;;;;;;;;;;;6272446;28;19913;-78
2023/12/04 15:18:37;;;;;;;;;;;;;;;;;;6290409;28;20373;-78
2023/12/04 15:21:37;;;;;;;;;;;;;;;;;;6277739;28;19921;-77
2023/12/04 15:24:37;;;;;;;;;;;;;;;;;;6284752;28;19919;-77
2023/12/04 15:27:37;;;;;;;;;;;;;;;;;;6289611;28;19909;-77
2023/12/04 15:30:37;;;;;;;;;;;;;;;;;;6284050;28;19921;-77
2023/12/04 15:33:37;;;;;;;;;;;;;;;;;;6288550;28;20258;-76
2023/12/04 15:36:38;;;;;;;;;;;;;;;;;;6289417;28;19923;-77
2023/12/04 15:39:38;;;;;;;;;;;;;;;;;;6297231;28;19913;-76
2023/12/04 15:42:38;;;;;;;;;;;;;;;;;;6301294;28;20391;-76
2023/12/04 15:45:38;;;;;;;;;;;;;;;;;;6287632;28;20411;-77
2023/12/04 15:48:38;;;;;;;;;;;;;;;;;;6278799;28;19916;-76
2023/12/04 15:51:38;;;;;;;;;;;;;;;;;;6276475;28;19913;-77
2023/12/04 15:54:38;;;;;;;;;;;;;;;;;;6277100;28;20043;-77
2023/12/04 15:57:39;;;;;;;;;;;;;;;;;;6295938;28;19919;-77
2023/12/04 16:00:39;;;;;;;;;;;;;;;;;;6298790;28;20011;-77
2023/12/04 16:03:39;;;;;;;;;;;;;;;;;;6284524;28;20312;-76
2023/12/04 16:06:39;;;;;;;;;;;;;;;;;;6282586;28;19966;-77
2023/12/04 16:09:39;;;;;;;;;;;;;;;;;;6286025;28;19923;-77
2023/12/04 16:12:39;;;;;;;;;;;;;;;;;;6300801;28;19913;-78
2023/12/04 16:15:41;;;;;;;;;;;;;;;;;;6266180;28;19913;-78
2023/12/04 16:18:41;;;;;;;;;;;;;;;;;;6277699;28;20404;-78
2023/12/04 16:21:41;;;;;;;;;;;;;;;;;;6288009;28;19913;-78
2023/12/04 16:24:43;;;;;;;;;;;;;;;;;;6274066;28;20443;-79
2023/12/04 16:27:43;;;;;;;;;;;;;;;;;;6275774;28;19920;-78
2023/12/04 16:30:43;;;;;;;;;;;;;;;;;;6289870;28;19924;-77
2023/12/04 16:33:43;;;;;;;;;;;;;;;;;;6277159;28;19931;-78
2023/12/04 16:36:43;;;;;;;;;;;;;;;;;;6277678;28;19947;-78
2023/12/04 16:39:43;;;;;;;;;;;;;;;;;;6281553;28;19916;-78
2023/12/04 16:42:44;;;;;;;;;;;;;;;;;;6280328;28;20257;-78
2023/12/04 16:45:45;;;;;;;;;;;;;;;;;;6279665;28;19913;-78
2023/12/04 16:48:45;;;;;;;;;;;;;;;;;;6280853;28;19909;-78
2023/12/04 16:51:45;;;;;;;;;;;;;;;;;;6293242;28;20282;-78
2023/12/04 16:54:50;;;;;;;;;;;;;;;;;;6292424;28;20366;-78
2023/12/04 16:57:51;;;;;;;;;;;;;;;;;;6291158;28;19932;-78
2023/12/04 17:00:51;;;;;;;;;;;;;;;;;;6293347;28;20262;-78
2023/12/04 17:03:51;;;;;;;;;;;;;;;;;;6295102;28;19913;-78
2023/12/04 17:06:51;;;;;;;;;;;;;;;;;;6288605;28;19912;-78
2023/12/04 17:09:51;;;;;;;;;;;;;;;;;;6278204;28;19912;-78
2023/12/04 17:12:52;;;;;;;;;;;;;;;;;;6299332;28;19908;-78
2023/12/04 17:15:52;;;;;;;;;;;;;;;;;;6298364;28;19909;-78
2023/12/04 17:18:52;;;;;;;;;;;;;;;;;;6284019;28;19935;-78
2023/12/04 17:21:52;;;;;;;;;;;;;;;;;;6279186;28;19913;-78
2023/12/04 17:24:53;;;;;;;;;;;;;;;;;;6291003;28;19913;-77
2023/12/04 17:27:53;;;;;;;;;;;;;;;;;;6287853;28;20373;-77
2023/12/04 17:30:53;;;;;;;;;;;;;;;;;;6275228;28;20389;-77
2023/12/04 17:33:53;;;;;;;;;;;;;;;;;;6284541;28;19931;-77
2023/12/04 17:36:53;;;;;;;;;;;;;;;;;;6273809;28;19920;-78
2023/12/04 17:39:53;;;;;;;;;;;;;;;;;;6293827;28;19916;-79
2023/12/04 17:42:53;;;;;;;;;;;;;;;;;;6298592;28;20349;-78
2023/12/04 17:45:55;;;;;;;;;;;;;;;;;;6283330;28;19912;-78
2023/12/04 17:48:57;;;;;;;;;;;;;;;;;;6279956;28;19931;-76
2023/12/04 17:51:57;;;;;;;;;;;;;;;;;;6295647;28;20284;-75
2023/12/04 17:54:57;;;;;;;;;;;;;;;;;;6272970;28;19912;-78
2023/12/04 17:57:57;;;;;;;;;;;;;;;;;;6290354;28;20430;-78
2023/12/04 18:00:58;;;;;;;;;;;;;;;;;;6293423;28;19931;-78
2023/12/04 18:03:58;;;;;;;;;;;;;;;;;;6293951;28;19912;-78
2023/12/04 18:06:59;;;;;;;;;;;;;;;;;;6284741;28;19920;-78
2023/12/04 18:09:59;;;;;;;;;;;;;;;;;;6272529;28;19913;-78
2023/12/04 18:12:59;;;;;;;;;;;;;;;;;;6272637;28;19919;-78
2023/12/04 18:15:59;;;;;;;;;;;;;;;;;;6271132;28;19973;-78
2023/12/04 18:18:59;;;;;;;;;;;;;;;;;;6281160;28;19999;-78
2023/12/04 18:21:59;;;;;;;;;;;;;;;;;;6289026;28;20003;-78
2023/12/04 18:25:02;;;;;;;;;;;;;;;;;;6292850;28;20019;-78
2023/12/04 18:28:04;;;;;;;;;;;;;;;;;;6277976;28;20380;-78
2023/12/04 18:31:04;;;;;;;;;;;;;;;;;;5920285;28;10000445;-78
2023/12/04 18:34:04;;;;;;;;;;;;;;;;;;6287009;28;19917;-78
2023/12/04 18:37:04;;;;;;;;;;;;;;;;;;6293969;28;20015;-78
2023/12/04 18:40:06;;;;;;;;;;;;;;;;;;6283169;28;20004;-78
2023/12/04 18:43:07;;;;;;;;;;;;;;;;;;6284052;28;19912;-78
2023/12/04 18:46:07;;;;;;;;;;;;;;;;;;6260536;28;19912;-78
2023/12/04 18:49:07;;;;;;;;;;;;;;;;;;6279667;28;20383;-78
2023/12/04 18:52:07;;;;;;;;;;;;;;;;;;6293016;28;20266;-78
2023/12/04 18:55:07;;;;;;;;;;;;;;;;;;6285419;28;20312;-78
2023/12/04 18:58:13;;;;;;;;;;;;;;;;;;6268747;28;20301;-78
2023/12/04 19:01:13;;;;;;;;;;;;;;;;;;6267769;28;20018;-78
2023/12/04 19:04:13;;;;;;;;;;;;;;;;;;6292534;28;19935;-78
2023/12/04 19:07:14;;;;;;;;;;;;;;;;;;6275387;28;19947;-78
2023/12/04 19:10:14;;;;;;;;;;;;;;;;;;6268973;28;19913;-78
2023/12/04 19:13:14;;;;;;;;;;;;;;;;;;6268289;28;19912;-78
2023/12/04 19:16:14;;;;;;;;;;;;;;;;;;6268076;28;19912;-78
2023/12/04 19:19:14;;;;;;;;;;;;;;;;;;6289492;28;19916;-78
2023/12/04 19:22:15;;;;;;;;;;;;;;;;;;6275404;28;20377;-78
2023/12/04 19:25:15;;;;;;;;;;;;;;;;;;6274938;28;19918;-78
2023/12/04 19:28:15;;;;;;;;;;;;;;;;;;6275440;28;20394;-78
2023/12/04 19:31:15;;;;;;;;;;;;;;;;;;6261785;28;19924;-78
2023/12/04 19:34:17;;;;;;;;;;;;;;;;;;6283990;28;20282;-79
2023/12/04 19:37:17;;;;;;;;;;;;;;;;;;6279590;28;19960;-78
2023/12/04 19:40:17;;;;;;;;;;;;;;;;;;6284336;28;19948;-78
2023/12/04 19:43:17;;;;;;;;;;;;;;;;;;6282436;28;19920;-78
2023/12/04 19:46:18;;;;;;;;;;;;;;;;;;6273106;28;20015;-78
2023/12/04 19:49:18;;;;;;;;;;;;;;;;;;6268323;28;19916;-78
2023/12/04 19:52:18;;;;;;;;;;;;;;;;;;6286008;28;19920;-78
2023/12/04 19:55:18;;;;;;;;;;;;;;;;;;6288988;28;19916;-78
2023/12/04 19:58:18;;;;;;;;;;;;;;;;;;6292825;28;19913;-78
2023/12/04 20:01:18;;;;;;;;;;;;;;;;;;6289589;28;20284;-78
2023/12/04 20:04:19;;;;;;;;;;;;;;;;;;6292179;28;19920;-78
2023/12/04 20:07:20;;;;;;;;;;;;;;;;;;6280737;28;19939;-78
2023/12/04 20:10:22;;;;;;;;;;;;;;;;;;6277742;28;19960;-77
2023/12/04 20:13:22;;;;;;;;;;;;;;;;;;6292730;28;20429;-77
2023/12/04 20:16:22;;;;;;;;;;;;;;;;;;6269810;28;20206;-78
2023/12/04 20:19:22;;;;;;;;;;;;;;;;;;6281170;28;19920;-78
2023/12/04 20:22:23;;;;;;;;;;;;;;;;;;6281747;28;19917;-78
2023/12/04 20:25:25;;;;;;;;;;;;;;;;;;6273271;28;19925;-78
2023/12/04 20:28:26;;;;;;;;;;;;;;;;;;6293478;28;20544;-78
2023/12/04 20:31:26;;;;;;;;;;;;;;;;;;6283856;28;19925;-78
2023/12/04 20:34:27;;;;;;;;;;;;;;;;;;6293932;28;19920;-78
2023/12/04 20:37:27;;;;;;;;;;;;;;;;;;6296033;28;19927;-78
2023/12/04 20:40:27;;;;;;;;;;;;;;;;;;6294936;28;19974;-78
2023/12/04 20:43:28;;;;;;;;;;;;;;;;;;6286395;28;20015;-78
2023/12/04 20:46:28;;;;;;;;;;;;;;;;;;6292157;28;19912;-78
2023/12/04 20:49:28;;;;;;;;;;;;;;;;;;6272676;28;20015;-78
2023/12/04 20:52:29;;;;;;;;;;;;;;;;;;6271877;28;20428;-79
2023/12/04 20:55:29;;;;;;;;;;;;;;;;;;6293475;28;19912;-78